Time;durP1;ratioP1;P1;durP2;ratioP2;P2;SDS_P1;SDS_P2;PMS_P1;PMS_P2;Temp;Humidity;BMP_temperature;BMP_pressure;BME280_temperature;BME280_humidity;BME280_pressure;Samples;Min_cycle;Max_cycle;Signal;HPM_P1;HPM_P2
2023/05/14 00:05:38;;;;;;;1999.90;999.90;;;11.30;99.90;;;;;;6748265;88;20207;-76
2023/05/14 00:15:39;;;;;;;1999.90;999.90;;;11.20;99.90;;;;;;6751209;88;20266;-76
2023/05/14 00:25:39;;;;;;;1999.90;999.90;;;10.90;99.90;;;;;;6737002;88;20566;-76
2023/05/14 00:35:40;;;;;;;1999.90;999.90;;;11.00;99.90;;;;;;6744334;88;20188;-76
2023/05/14 00:45:40;;;;;;;1999.90;999.90;;;10.80;99.90;;;;;;6735573;88;20200;-76
2023/05/14 00:55:41;;;;;;;1999.90;999.90;;;10.60;99.90;;;;;;6738017;88;20243;-77
2023/05/14 01:06:16;;;;;;;1999.90;999.90;;;10.40;99.90;;;;;;6742368;88;20676;-77
2023/05/14 01:16:18;;;;;;;1999.90;999.90;;;10.40;99.90;;;;;;6743463;88;20755;-78
2023/05/14 01:26:19;;;;;;;1999.90;999.90;;;10.20;99.90;;;;;;6738589;88;20292;-77
2023/05/14 01:36:21;;;;;;;1999.90;999.90;;;10.20;99.90;;;;;;6738798;88;20255;-77
2023/05/14 01:46:23;;;;;;;1999.90;999.90;;;10.20;99.90;;;;;;6738183;88;20188;-77
2023/05/14 01:56:24;;;;;;;1999.90;999.90;;;10.10;99.90;;;;;;6749024;88;20193;-77
2023/05/14 02:06:25;;;;;;;1999.90;999.90;;;10.00;99.90;;;;;;6740477;88;20240;-77
2023/05/14 02:16:25;;;;;;;1999.90;999.90;;;9.90;99.90;;;;;;6739706;88;20302;-77
2023/05/14 02:26:26;;;;;;;1999.90;999.90;;;9.70;99.90;;;;;;6743234;88;20530;-77
2023/05/14 02:36:26;;;;;;;1999.90;999.90;;;9.60;99.90;;;;;;6747613;88;20176;-77
2023/05/14 02:46:27;;;;;;;1999.90;999.90;;;9.30;99.90;;;;;;6738368;88;20602;-77
2023/05/14 02:56:27;;;;;;;1999.90;999.90;;;9.10;99.90;;;;;;6744024;88;20221;-77
2023/05/14 03:06:28;;;;;;;1999.90;999.90;;;9.20;99.90;;;;;;6742332;88;20281;-77
2023/05/14 03:16:28;;;;;;;1999.90;999.90;;;9.10;99.90;;;;;;6740146;88;20660;-77
2023/05/14 03:26:29;;;;;;;1999.90;999.90;;;9.20;99.90;;;;;;6744762;88;20188;-77
2023/05/14 03:36:30;;;;;;;1999.90;999.90;;;8.90;99.90;;;;;;6755443;88;20197;-77
2023/05/14 03:46:31;;;;;;;1999.90;999.90;;;8.90;99.90;;;;;;6754568;88;20248;-78
2023/05/14 03:56:32;;;;;;;1999.90;999.90;;;8.70;99.90;;;;;;6740036;88;20329;-77
2023/05/14 04:06:33;;;;;;;1999.90;999.90;;;8.70;99.90;;;;;;6742853;88;20193;-77
2023/05/14 04:16:33;;;;;;;1999.90;999.90;;;8.50;99.90;;;;;;6737934;88;20189;-77
2023/05/14 04:26:34;;;;;;;1999.90;999.90;;;8.60;99.90;;;;;;6739089;88;20223;-77
2023/05/14 04:36:34;;;;;;;1999.90;999.90;;;8.60;99.90;;;;;;6737133;88;20197;-77
2023/05/14 04:46:35;;;;;;;1999.90;999.90;;;8.50;99.90;;;;;;6736968;88;20214;-77
2023/05/14 04:56:35;;;;;;;1999.90;999.90;;;8.50;99.90;;;;;;6739338;88;20235;-77
2023/05/14 05:06:36;;;;;;;1999.90;999.90;;;8.80;99.90;;;;;;6739926;88;20547;-76
2023/05/14 05:16:36;;;;;;;1999.90;999.90;;;8.80;99.90;;;;;;6748759;88;20731;-77
2023/05/14 05:26:37;;;;;;;1999.90;999.90;;;9.00;99.90;;;;;;6742308;88;20230;-77
2023/05/14 05:36:37;;;;;;;1999.90;999.90;;;9.10;99.90;;;;;;6737516;88;20244;-76
2023/05/14 05:46:38;;;;;;;1999.90;999.90;;;9.50;99.90;;;;;;6742374;88;20192;-76
2023/05/14 05:56:38;;;;;;;1999.90;999.90;;;9.70;99.90;;;;;;6739709;76;20270;-74
2023/05/14 06:06:39;;;;;;;1999.90;999.90;;;10.20;99.90;;;;;;6707864;88;20304;-75
2023/05/14 06:16:40;;;;;;;1999.90;999.90;;;10.60;99.90;;;;;;6704174;88;20208;-74
2023/05/14 06:26:40;;;;;;;1999.90;999.90;;;10.90;99.90;;;;;;6707698;88;20307;-74
2023/05/14 06:36:41;;;;;;;1999.90;999.90;;;11.20;99.90;;;;;;6708781;88;20204;-76
2023/05/14 06:46:41;;;;;;;1999.90;999.90;;;11.90;99.90;;;;;;6703169;88;20265;-76
2023/05/14 06:56:42;;;;;;;1999.90;999.90;;;12.50;99.90;;;;;;6712534;88;20232;-75
2023/05/14 07:06:42;;;;;;;1999.90;999.90;;;13.10;99.90;;;;;;6707752;88;20210;-75
2023/05/14 07:16:44;;;;;;;1999.90;999.90;;;13.50;99.90;;;;;;6708579;88;20737;-75
2023/05/14 07:26:45;;;;;;;1999.90;999.90;;;13.70;99.90;;;;;;6713172;88;20752;-75
2023/05/14 07:36:45;;;;;;;1999.90;999.90;;;14.40;99.90;;;;;;6713948;88;20189;-75
2023/05/14 07:46:46;;;;;;;1999.90;999.90;;;15.20;99.90;;;;;;6711864;88;20202;-75
2023/05/14 07:56:47;;;;;;;1999.90;999.90;;;15.60;99.90;;;;;;6716598;88;20216;-77
2023/05/14 08:06:48;;;;;;;1999.90;999.90;;;16.30;99.90;;;;;;6709915;88;20231;-77
2023/05/14 08:16:49;;;;;;;1999.90;999.90;;;17.10;99.90;;;;;;6706068;88;20193;-76
2023/05/14 08:26:49;;;;;;;1999.90;999.90;;;17.50;99.90;;;;;;6708064;88;20256;-76
2023/05/14 08:36:50;;;;;;;1999.90;999.90;;;18.60;99.90;;;;;;6707304;88;20193;-77
2023/05/14 08:46:52;;;;;;;1999.90;999.90;;;19.10;99.90;;;;;;6711000;88;20367;-76
2023/05/14 08:56:53;;;;;;;1999.90;999.90;;;19.80;99.90;;;;;;6711330;88;20220;-77
2023/05/14 09:06:54;;;;;;;1999.90;999.90;;;20.20;99.90;;;;;;6714453;88;20207;-76
2023/05/14 09:16:56;;;;;;;1999.90;999.90;;;20.80;99.90;;;;;;6706601;88;20194;-76
2023/05/14 09:26:57;;;;;;;1999.90;999.90;;;21.40;99.90;;;;;;6709046;88;20806;-76
2023/05/14 09:37:00;;;;;;;1999.90;999.90;;;21.90;99.90;;;;;;6709723;88;20224;-76
2023/05/14 09:47:00;;;;;;;1999.90;999.90;;;22.20;99.90;;;;;;6708257;88;20706;-77
2023/05/14 09:57:01;;;;;;;1999.90;999.90;;;22.60;99.90;;;;;;6708143;88;20221;-76
2023/05/14 10:07:02;;;;;;;1999.90;999.90;;;22.90;99.90;;;;;;6708766;88;20208;-76
2023/05/14 10:17:04;;;;;;;1999.90;999.90;;;22.20;99.90;;;;;;6708381;88;20357;-76
2023/05/14 10:27:05;;;;;;;1999.90;999.90;;;22.30;99.90;;;;;;6708678;88;20215;-76
2023/05/14 10:37:09;;;;;;;1999.90;999.90;;;24.00;99.90;;;;;;6714645;88;20599;-76
2023/05/14 10:47:10;;;;;;;1999.90;999.90;;;24.10;99.90;;;;;;6711190;88;20378;-76
2023/05/14 10:57:11;;;;;;;1999.90;999.90;;;24.90;98.30;;;;;;6711712;88;20337;-76
2023/05/14 11:07:12;;;;;;;1999.90;999.90;;;25.20;97.50;;;;;;6708741;88;20700;-76
2023/05/14 11:17:14;;;;;;;1999.90;999.90;;;25.50;97.40;;;;;;6710656;88;20665;-76
2023/05/14 11:27:16;;;;;;;1999.90;999.90;;;25.60;96.60;;;;;;6710417;88;20652;-76
2023/05/14 11:37:17;;;;;;;1999.90;999.90;;;24.70;97.20;;;;;;6707907;88;20214;-77
2023/05/14 11:47:19;;;;;;;1999.90;999.90;;;23.20;98.20;;;;;;6709172;88;20653;-75
2023/05/14 11:57:21;;;;;;;1999.90;999.90;;;22.80;99.20;;;;;;6712592;88;20640;-76
2023/05/14 12:07:22;;;;;;;1999.90;999.90;;;22.30;99.50;;;;;;6715725;88;20697;-76
2023/05/14 12:17:22;;;;;;;1999.90;999.90;;;22.00;99.10;;;;;;6703454;88;20204;-77
2023/05/14 12:27:28;;;;;;;1999.90;999.90;;;23.40;97.30;;;;;;6713453;88;20185;-77
2023/05/14 12:37:29;;;;;;;1999.90;999.90;;;24.10;96.60;;;;;;6711516;88;20185;-77
2023/05/14 12:47:30;;;;;;;1999.90;999.90;;;23.50;97.00;;;;;;6698730;88;20213;-76
2023/05/14 12:57:31;;;;;;;1999.90;999.90;;;23.30;96.70;;;;;;6710386;88;20187;-77
2023/05/14 13:07:31;;;;;;;1999.90;999.90;;;23.50;97.60;;;;;;6717877;88;20822;-77
2023/05/14 13:17:32;;;;;;;1999.90;999.90;;;23.40;95.90;;;;;;6709957;88;20237;-77
2023/05/14 13:27:34;;;;;;;1999.90;999.90;;;24.00;95.80;;;;;;6707926;88;20190;-77
2023/05/14 13:37:35;;;;;;;1999.90;999.90;;;25.50;93.70;;;;;;6716359;88;20175;-78
2023/05/14 13:47:36;;;;;;;1999.90;999.90;;;24.90;95.30;;;;;;6714694;88;20245;-77
2023/05/14 13:57:38;;;;;;;1999.90;999.90;;;24.50;93.60;;;;;;6720935;88;20683;-77
2023/05/14 14:07:39;;;;;;;1999.90;999.90;;;24.10;93.70;;;;;;6712654;88;20184;-77
2023/05/14 14:17:40;;;;;;;1999.90;999.90;;;23.80;94.10;;;;;;6715256;88;20218;-78
2023/05/14 14:27:41;;;;;;;1999.90;999.90;;;23.50;94.40;;;;;;6717282;88;20194;-77
2023/05/14 14:37:44;;;;;;;1999.90;999.90;;;23.70;95.60;;;;;;6715844;88;20197;-79
2023/05/14 14:47:45;;;;;;;1999.90;999.90;;;23.90;95.20;;;;;;6717012;88;20191;-76
2023/05/14 14:57:46;;;;;;;1999.90;999.90;;;24.50;94.10;;;;;;6717073;88;20241;-77
2023/05/14 15:07:46;;;;;;;1999.90;999.90;;;24.10;93.20;;;;;;6713378;88;20320;-76
2023/05/14 15:17:47;;;;;;;1999.90;999.90;;;24.70;93.00;;;;;;6716733;88;20203;-76
2023/05/14 15:27:48;;;;;;;1999.90;999.90;;;24.80;91.90;;;;;;6713582;88;20203;-77
2023/05/14 15:37:48;;;;;;;1999.90;999.90;;;24.00;91.70;;;;;;6711333;88;21097;-76
2023/05/14 15:47:49;;;;;;;1999.90;999.90;;;24.50;92.00;;;;;;6717251;88;20194;-78
2023/05/14 15:57:50;;;;;;;1999.90;999.90;;;24.10;91.30;;;;;;6714773;88;20539;-78
2023/05/14 16:07:51;;;;;;;1999.90;999.90;;;24.70;91.90;;;;;;6712500;88;20677;-79
2023/05/14 16:17:51;;;;;;;1999.90;999.90;;;23.80;93.00;;;;;;6718358;88;20216;-77
2023/05/14 16:27:52;;;;;;;1999.90;999.90;;;22.90;93.60;;;;;;6713010;88;20651;-78
2023/05/14 16:37:53;;;;;;;1999.90;999.90;;;22.20;94.30;;;;;;6712572;88;20312;-77
2023/05/14 16:47:53;;;;;;;1999.90;999.90;;;22.40;93.60;;;;;;6722551;88;20241;-78
2023/05/14 16:57:54;;;;;;;1999.90;999.90;;;22.30;94.20;;;;;;6728130;88;20218;-78
2023/05/14 17:07:55;;;;;;;1999.90;999.90;;;21.80;94.20;;;;;;6711383;88;20246;-77
2023/05/14 17:17:56;;;;;;;1999.90;999.90;;;21.70;95.20;;;;;;6716790;88;20202;-77
2023/05/14 17:27:56;;;;;;;1999.90;999.90;;;21.50;95.00;;;;;;6713439;88;20217;-76
2023/05/14 17:37:57;;;;;;;1999.90;999.90;;;21.20;95.70;;;;;;6716164;88;20996;-76
2023/05/14 17:47:57;;;;;;;1999.90;999.90;;;21.00;96.00;;;;;;6711993;88;20257;-76
2023/05/14 17:57:58;;;;;;;1999.90;999.90;;;20.80;96.00;;;;;;6712924;88;20204;-76
2023/05/14 18:07:59;;;;;;;1999.90;999.90;;;20.50;96.60;;;;;;6711350;88;20243;-77
2023/05/14 18:17:59;;;;;;;1999.90;999.90;;;20.30;97.50;;;;;;6709846;88;20700;-76
2023/05/14 18:28:00;;;;;;;1999.90;999.90;;;20.00;97.90;;;;;;6712647;88;20222;-77
2023/05/14 18:38:01;;;;;;;1999.90;999.90;;;19.80;98.30;;;;;;6697332;88;20207;-77
2023/05/14 18:48:02;;;;;;;1999.90;999.90;;;19.60;98.50;;;;;;6697023;88;20764;-75
2023/05/14 18:58:02;;;;;;;1999.90;999.90;;;19.30;99.30;;;;;;6693838;88;20250;-76
2023/05/14 19:08:03;;;;;;;1999.90;999.90;;;19.10;99.60;;;;;;6703222;88;20644;-76
2023/05/14 19:18:04;;;;;;;1999.90;999.90;;;18.70;99.90;;;;;;6707086;88;20247;-75
2023/05/14 19:28:04;;;;;;;1999.90;999.90;;;18.50;99.90;;;;;;6704847;88;20739;-74
2023/05/14 19:38:05;;;;;;;1999.90;999.90;;;18.20;99.90;;;;;;6702057;88;20507;-75
2023/05/14 19:48:05;;;;;;;1999.90;999.90;;;18.10;99.90;;;;;;6705081;88;20224;-76
2023/05/14 19:58:06;;;;;;;1999.90;999.90;;;17.90;99.90;;;;;;6708767;88;20592;-75
2023/05/14 20:08:08;;;;;;;1999.90;999.90;;;17.60;99.90;;;;;;6697621;88;20219;-76
2023/05/14 20:18:08;;;;;;;1999.90;999.90;;;17.30;99.90;;;;;;6696760;88;20178;-74
2023/05/14 20:28:09;;;;;;;1999.90;999.90;;;17.00;99.90;;;;;;6703229;88;20739;-74
2023/05/14 20:38:11;;;;;;;1999.90;999.90;;;16.80;99.90;;;;;;6698248;88;20532;-75
2023/05/14 20:48:15;;;;;;;1999.90;999.90;;;16.60;99.90;;;;;;6699141;88;20194;-75
2023/05/14 20:58:15;;;;;;;1999.90;999.90;;;16.40;99.90;;;;;;6706328;88;20200;-74
2023/05/14 21:08:16;;;;;;;1999.90;999.90;;;16.30;99.90;;;;;;6712219;88;20209;-75
2023/05/14 21:18:16;;;;;;;1999.90;999.90;;;16.20;99.90;;;;;;6722956;88;20186;-74
2023/05/14 21:28:17;;;;;;;1999.90;999.90;;;16.10;99.90;;;;;;6713002;88;20182;-75
2023/05/14 21:38:17;;;;;;;1999.90;999.90;;;16.00;99.90;;;;;;6697675;88;21089;-75
2023/05/14 21:48:20;;;;;;;1999.90;999.90;;;15.80;99.90;;;;;;6702586;88;20236;-74
2023/05/14 21:58:20;;;;;;;1999.90;999.90;;;15.70;99.90;;;;;;6698068;88;20248;-74
2023/05/14 22:08:22;;;;;;;1999.90;999.90;;;15.50;99.90;;;;;;6696137;88;20174;-75
2023/05/14 22:18:23;;;;;;;1999.90;999.90;;;15.30;99.90;;;;;;6698513;88;20228;-75
2023/05/14 22:28:23;;;;;;;1999.90;999.90;;;15.30;99.90;;;;;;6699988;88;20326;-75
2023/05/14 22:38:24;;;;;;;1999.90;999.90;;;15.20;99.90;;;;;;6699032;88;20515;-74
2023/05/14 22:48:24;;;;;;;1999.90;999.90;;;15.00;99.90;;;;;;6699574;88;20247;-75
2023/05/14 22:58:25;;;;;;;1999.90;999.90;;;14.90;99.90;;;;;;6710912;88;21003;-75
2023/05/14 23:08:25;;;;;;;1999.90;999.90;;;14.80;99.90;;;;;;6702044;88;21611;-75
2023/05/14 23:18:26;;;;;;;1999.90;999.90;;;14.50;99.90;;;;;;6701086;88;20328;-75
2023/05/14 23:28:26;;;;;;;1999.90;999.90;;;14.30;99.90;;;;;;6703546;88;20186;-75
2023/05/14 23:38:27;;;;;;;1999.90;999.90;;;14.20;99.90;;;;;;6702409;88;20190;-75
2023/05/14 23:48:28;;;;;;;1999.90;999.90;;;14.10;99.90;;;;;;6707977;88;20563;-75
2023/05/14 23:58:29;;;;;;;1999.90;999.90;;;13.90;99.90;;;;;;6709576;88;20557;-76
